• Join FlightAware (Why Join?)
  • Login
  • US Flag GB Flag 
02:25 EDT


 

Airport Tracker/Info


-or-


 

Live Flight TrackerFlight Track Log ✈ DAL3799 ✈ 15-Jun-2013 ✈ KIAD - KDTW

Flight Track Log - Related Links

Times and Time Zones

All times are in EDT time to prevent confusion due to time zone crossing. See the DAL3799 flight status page for this flight to view local times or setup timezone preferences in your user account.

Time Position Orientation Groundspeed Altitude Reporting Facility
EDT Latitude Longitude Course Direction KTS MPH feet Rate Location/Type
18:51 38.9667 -77.4333 288° West 159 183 1,500  Level Potomac TRACON
18:53 39.1887 -77.5167 North  Level FlightAware Approximate
18:53 39.0922 -77.5011 337° Northwest 243 280 6,300  Level Washington Center
18:54 39.2774 -77.5373 344° North  Level FlightAware Approximate
18:54 39.1558 -77.5508 329° Northwest 253 291 9,400  Level Washington Center
18:55 39.3642 -77.5699 344° North  Level FlightAware Approximate
18:55 39.2217 -77.6036 328° Northwest 271 312 11,100  Level Washington Center
18:56 39.4509 -77.5871 288° West  Level FlightAware Approximate
18:56 39.3000 -77.6675 328° Northwest 299 344 12,500  Level Washington Center
18:57 39.3781 -77.7314 328° Northwest 322 371 14,100 1,680 Climbing Washington Center
18:58 39.4581 -77.7956 328° Northwest 328 377 16,000 1,680 Climbing Washington Center
19:00 39.5719 -77.9572 312° West 341 392 18,700 1,440 Climbing Cleveland Center
19:01 39.6058 -78.0747 291° West 341 392 20,000 1,200 Climbing Cleveland Center
19:02 39.6419 -78.1944 291° West 348 400 21,200 1,080 Climbing Cleveland Center
19:03 39.6775 -78.3119 291° West 358 412 22,200 960 Climbing Cleveland Center
19:04 39.7133 -78.4350 291° West 364 419 23,200 900 Climbing Cleveland Center
19:05 39.7469 -78.5581 290° West 364 419 24,000 600 Climbing Cleveland Center
19:06 39.7778 -78.6572 292° West 369 425 24,500 600 Climbing Cleveland Center
19:07 39.8197 -78.7911 292° West 369 425 25,200 600 Climbing Cleveland Center
19:08 39.8733 -78.9058 301° West 369 425 25,800 360 Climbing Cleveland Center
19:09 39.9378 -79.0344 303° West 389 448 26,000 60 Climbing Cleveland Center
19:10 39.9978 -79.1575 303° West 394 453 26,000  Level Cleveland Center
19:11 40.0556 -79.2783 302° West 394 453 26,000  Level Cleveland Center
19:12 40.1153 -79.4050 302° West 399 459 26,000  Level Cleveland Center
19:13 40.1750 -79.5317 302° West 399 459 26,000  Level Cleveland Center
19:14 40.2344 -79.6583 302° West 399 459 26,000  Level Cleveland Center
19:15 40.2936 -79.7856 301° West 404 465 26,000  Level Cleveland Center
19:16 40.3528 -79.9103 302° West 404 465 26,000  Level Cleveland Center
19:17 40.4036 -80.0297 299° West 404 465 26,000  Level Cleveland Center
19:18 40.4625 -80.1575 301° West 404 465 26,000  Level Cleveland Center
19:19 40.5211 -80.2853 301° West 404 465 26,000  Level Cleveland Center
19:20 40.5883 -80.4192 304° West 404 465 26,000  Level Cleveland Center
19:21 40.6489 -80.5447 302° West 404 465 26,000  Level Cleveland Center
19:22 40.7114 -80.6708 303° West 410 472 26,000  Level Cleveland Center
19:23 40.7736 -80.7886 305° West 405 466 26,000  Level Cleveland Center
19:24 40.8339 -80.9125 303° West 405 466 26,000  Level Cleveland Center
19:25 40.8958 -81.0364 304° West 405 466 26,000  Level Cleveland Center
19:26 40.9517 -81.1550 302° West 411 473 26,000  Level Cleveland Center
19:27 41.0114 -81.2794 302° West 406 467 26,000  Level Cleveland Center
19:28 41.0731 -81.4067 303° West 406 467 26,000  Level Cleveland Center
19:29 41.1431 -81.5425 304° West 411 473 26,000  Level Cleveland Center
19:30 41.1983 -81.6567 303° West 411 473 26,000  Level Cleveland Center
19:31 41.2656 -81.7958 303° West 418 481 26,000  Level Cleveland Center
19:32 41.3247 -81.9214 302° West 412 474 26,000 -600 Level Cleveland Center
19:33 41.3856 -82.0528 302° West 418 481 24,900 -1,920 Descending Cleveland Center
19:34 41.4464 -82.1842 302° West 418 481 22,200 -2,400 Descending Cleveland Center
19:35 41.4989 -82.2992 301° West 411 473 20,200 -2,220 Descending Cleveland Center
19:36 41.5553 -82.4200 302° West 399 459 17,800 -2,400 Descending Cleveland Center
19:36 41.5897 -82.4822 307° West 380 437 16,800 -1,920 Descending Cleveland Center
19:37 41.6119 -82.5356 299° West 383 441 15,900 -1,980 Descending Cleveland Center
19:37 41.6400 -82.5947 302° West 341 392 14,800 -1,920 Descending Cleveland Center
19:38 41.6600 -82.6425 299° West 359 413 14,000 -2,160 Descending Cleveland Center
19:38 41.6842 -82.6908 304° West 331 381 12,900 -1,920 Descending Cleveland Center
19:39 41.7081 -82.7472 300° West 341 392 12,100 -1,020 Descending Cleveland Center
19:39 41.7344 -82.7869 312° West 340 391 12,000 -120 Descending Cleveland Center
19:40 41.7731 -82.8411 314° West 341 392 12,000  Level Cleveland Center
19:40 41.8117 -82.8844 320° Northwest 361 415 12,000  Level Cleveland Center
19:41 41.8483 -82.9303 317° Northwest 341 392 12,000  Level Cleveland Center
19:41 41.8850 -82.9733 319° Northwest 357 411 12,000  Level Cleveland Center
19:42 41.9217 -83.0167 319° Northwest 351 404 12,000  Level Cleveland Center
19:42 41.9583 -83.0600 319° Northwest 352 405 12,000  Level Cleveland Center
19:43 41.9928 -83.1031 317° Northwest 351 404 12,000  Level Cleveland Center
19:43 42.0211 -83.1350 320° Northwest 325 374 12,000  Level Cleveland Center
19:44 42.0556 -83.1783 317° Northwest 338 389 12,000 -420 Level Cleveland Center
19:45 42.1314 -83.2347 331° Northwest 293 337 11,300 -1,140 Descending Cleveland Center
19:45 42.1731 -83.2447 350° North 288 331 10,300 -1,620 Descending Cleveland Center
19:46 42.2086 -83.2322 15° North 268 308 9,700 -1,500 Descending Cleveland Center
19:46 42.2383 -83.2139 25° Northeast 289 333 9,100 -1,560 Descending Cleveland Center
19:47 42.3208 -83.1583 26° Northeast 267 307 7,300 -1,500 Descending Cleveland Center
19:48 42.3761 -83.1100 33° Northeast 259 298 6,000 -1,200 Descending Cleveland Center
19:49 42.4300 -83.1206 352° North 202 232 5,000 -480 Descending Cleveland Center
19:50 42.4033 -83.1983 245° Southwest 201 231 5,000 -480 Level Cleveland Center
19:51 42.3694 -83.2250 210° Southwest 179 206 4,100 -1,080 Descending Cleveland Center
19:52 42.3142 -83.2647 208° Southwest 177 204 2,900 -1,020 Descending Cleveland Center